sensor_id;sensor_type;location;lat;lon;timestamp;temperature;humidity
17148;DHT22;8689;47.364;8.796;2024-03-23T00:56:00;10.20;99.90
17148;DHT22;8689;47.364;8.796;2024-03-23T00:58:26;10.30;99.90
17148;DHT22;8689;47.364;8.796;2024-03-23T01:00:53;10.40;99.90
17148;DHT22;8689;47.364;8.796;2024-03-23T01:03:19;10.40;99.90
17148;DHT22;8689;47.364;8.796;2024-03-23T01:05:46;10.50;99.90
17148;DHT22;8689;47.364;8.796;2024-03-23T01:08:14;10.60;99.90
17148;DHT22;8689;47.364;8.796;2024-03-23T01:10:43;10.80;99.90
17148;DHT22;8689;47.364;8.796;2024-03-23T01:13:19;10.90;99.90
17148;DHT22;8689;47.364;8.796;2024-03-23T01:15:48;10.90;99.90
17148;DHT22;8689;47.364;8.796;2024-03-23T01:18:14;10.90;99.90
17148;DHT22;8689;47.364;8.796;2024-03-23T01:20:41;10.90;99.70
17148;DHT22;8689;47.364;8.796;2024-03-23T01:23:07;11.00;99.20
17148;DHT22;8689;47.364;8.796;2024-03-23T01:25:35;11.10;98.60
17148;DHT22;8689;47.364;8.796;2024-03-23T01:28:03;11.10;97.90
17148;DHT22;8689;47.364;8.796;2024-03-23T01:30:32;11.20;97.30
17148;DHT22;8689;47.364;8.796;2024-03-23T01:32:57;11.30;96.50
17148;DHT22;8689;47.364;8.796;2024-03-23T01:35:25;11.40;96.30
17148;DHT22;8689;47.364;8.796;2024-03-23T01:37:51;11.40;96.20
17148;DHT22;8689;47.364;8.796;2024-03-23T01:40:18;11.40;95.90
17148;DHT22;8689;47.364;8.796;2024-03-23T01:42:55;11.30;95.20
17148;DHT22;8689;47.364;8.796;2024-03-23T01:45:24;11.30;95.50
17148;DHT22;8689;47.364;8.796;2024-03-23T01:47:50;11.20;95.70
17148;DHT22;8689;47.364;8.796;2024-03-23T01:50:19;11.20;95.80
17148;DHT22;8689;47.364;8.796;2024-03-23T01:52:45;11.20;95.50
17148;DHT22;8689;47.364;8.796;2024-03-23T01:55:12;11.10;95.60
17148;DHT22;8689;47.364;8.796;2024-03-23T01:57:38;11.00;95.20
17148;DHT22;8689;47.364;8.796;2024-03-23T02:00:06;11.00;95.60
17148;DHT22;8689;47.364;8.796;2024-03-23T02:02:34;10.90;96.00
17148;DHT22;8689;47.364;8.796;2024-03-23T02:05:01;10.90;95.50
17148;DHT22;8689;47.364;8.796;2024-03-23T02:07:27;11.00;94.90
17148;DHT22;8689;47.364;8.796;2024-03-23T02:09:54;11.10;95.00
17148;DHT22;8689;47.364;8.796;2024-03-23T02:12:21;11.10;95.20
17148;DHT22;8689;47.364;8.796;2024-03-23T02:14:48;11.00;96.20
17148;DHT22;8689;47.364;8.796;2024-03-23T02:17:14;11.00;95.70
17148;DHT22;8689;47.364;8.796;2024-03-23T02:19:42;11.00;95.30
17148;DHT22;8689;47.364;8.796;2024-03-23T02:22:08;11.00;95.10
17148;DHT22;8689;47.364;8.796;2024-03-23T02:24:38;11.00;94.30
17148;DHT22;8689;47.364;8.796;2024-03-23T02:27:04;11.00;96.60
17148;DHT22;8689;47.364;8.796;2024-03-23T02:29:32;11.00;95.90
17148;DHT22;8689;47.364;8.796;2024-03-23T02:31:58;10.90;97.90
17148;DHT22;8689;47.364;8.796;2024-03-23T02:34:25;10.80;96.00
17148;DHT22;8689;47.364;8.796;2024-03-23T02:36:51;10.80;95.40
17148;DHT22;8689;47.364;8.796;2024-03-23T02:39:18;10.80;95.10
17148;DHT22;8689;47.364;8.796;2024-03-23T02:41:45;10.90;95.40
17148;DHT22;8689;47.364;8.796;2024-03-23T02:44:13;10.90;94.40
17148;DHT22;8689;47.364;8.796;2024-03-23T02:46:39;10.90;94.90
17148;DHT22;8689;47.364;8.796;2024-03-23T02:49:07;10.90;95.60
17148;DHT22;8689;47.364;8.796;2024-03-23T02:51:33;10.70;96.60
17148;DHT22;8689;47.364;8.796;2024-03-23T02:54:00;10.60;94.50
17148;DHT22;8689;47.364;8.796;2024-03-23T02:56:27;10.70;94.10
17148;DHT22;8689;47.364;8.796;2024-03-23T02:58:55;10.60;94.90
17148;DHT22;8689;47.364;8.796;2024-03-23T03:01:21;10.60;95.20
17148;DHT22;8689;47.364;8.796;2024-03-23T03:03:48;10.50;95.60
17148;DHT22;8689;47.364;8.796;2024-03-23T03:06:23;10.50;96.00
17148;DHT22;8689;47.364;8.796;2024-03-23T03:08:50;10.30;96.20
17148;DHT22;8689;47.364;8.796;2024-03-23T03:11:16;10.20;96.50
17148;DHT22;8689;47.364;8.796;2024-03-23T03:13:43;10.10;97.00
17148;DHT22;8689;47.364;8.796;2024-03-23T03:16:10;9.90;98.00
17148;DHT22;8689;47.364;8.796;2024-03-23T03:18:38;9.70;99.10
17148;DHT22;8689;47.364;8.796;2024-03-23T03:21:04;9.50;98.90
17148;DHT22;8689;47.364;8.796;2024-03-23T03:23:36;9.40;99.90
17148;DHT22;8689;47.364;8.796;2024-03-23T03:26:02;9.20;99.90
17148;DHT22;8689;47.364;8.796;2024-03-23T03:28:29;9.10;99.90
17148;DHT22;8689;47.364;8.796;2024-03-23T03:30:56;9.00;99.90
17148;DHT22;8689;47.364;8.796;2024-03-23T03:33:25;9.10;99.90
17148;DHT22;8689;47.364;8.796;2024-03-23T03:35:52;9.10;99.90
17148;DHT22;8689;47.364;8.796;2024-03-23T03:38:19;9.10;99.90
17148;DHT22;8689;47.364;8.796;2024-03-23T03:40:45;9.10;99.90
17148;DHT22;8689;47.364;8.796;2024-03-23T03:43:12;9.10;99.90
17148;DHT22;8689;47.364;8.796;2024-03-23T03:45:38;9.20;99.90
17148;DHT22;8689;47.364;8.796;2024-03-23T03:48:06;9.20;99.90
17148;DHT22;8689;47.364;8.796;2024-03-23T03:50:34;9.20;99.90
17148;DHT22;8689;47.364;8.796;2024-03-23T03:53:01;9.30;98.80
17148;DHT22;8689;47.364;8.796;2024-03-23T03:55:27;9.50;98.30
17148;DHT22;8689;47.364;8.796;2024-03-23T03:57:54;9.70;97.00
17148;DHT22;8689;47.364;8.796;2024-03-23T04:00:21;9.90;96.50
17148;DHT22;8689;47.364;8.796;2024-03-23T04:02:48;10.00;95.40
17148;DHT22;8689;47.364;8.796;2024-03-23T04:05:14;10.10;94.90
17148;DHT22;8689;47.364;8.796;2024-03-23T04:07:42;10.20;94.60
17148;DHT22;8689;47.364;8.796;2024-03-23T04:10:09;10.20;94.70
17148;DHT22;8689;47.364;8.796;2024-03-23T04:12:37;10.20;94.40
17148;DHT22;8689;47.364;8.796;2024-03-23T04:15:03;10.10;94.20
17148;DHT22;8689;47.364;8.796;2024-03-23T04:17:30;10.10;94.50
17148;DHT22;8689;47.364;8.796;2024-03-23T04:19:57;10.10;94.30
17148;DHT22;8689;47.364;8.796;2024-03-23T04:22:24;10.10;94.30
17148;DHT22;8689;47.364;8.796;2024-03-23T04:24:53;10.10;94.40
17148;DHT22;8689;47.364;8.796;2024-03-23T04:27:21;10.10;94.40
17148;DHT22;8689;47.364;8.796;2024-03-23T04:29:48;10.00;94.10
17148;DHT22;8689;47.364;8.796;2024-03-23T04:32:16;10.00;94.00
17148;DHT22;8689;47.364;8.796;2024-03-23T04:34:42;9.90;94.70
17148;DHT22;8689;47.364;8.796;2024-03-23T04:37:10;9.80;95.10
17148;DHT22;8689;47.364;8.796;2024-03-23T04:39:38;9.80;95.00
17148;DHT22;8689;47.364;8.796;2024-03-23T04:42:07;9.80;95.00
17148;DHT22;8689;47.364;8.796;2024-03-23T04:44:33;9.70;95.00
17148;DHT22;8689;47.364;8.796;2024-03-23T04:47:00;9.70;94.70
17148;DHT22;8689;47.364;8.796;2024-03-23T04:49:28;9.70;94.90
17148;DHT22;8689;47.364;8.796;2024-03-23T04:51:54;9.80;94.60
17148;DHT22;8689;47.364;8.796;2024-03-23T04:54:21;9.90;94.50
17148;DHT22;8689;47.364;8.796;2024-03-23T04:56:49;10.00;93.60
17148;DHT22;8689;47.364;8.796;2024-03-23T04:59:16;10.10;93.30
17148;DHT22;8689;47.364;8.796;2024-03-23T05:01:43;10.10;93.30
17148;DHT22;8689;47.364;8.796;2024-03-23T05:04:09;10.20;93.10
17148;DHT22;8689;47.364;8.796;2024-03-23T05:06:36;10.30;92.50
17148;DHT22;8689;47.364;8.796;2024-03-23T05:09:03;10.40;92.30
17148;DHT22;8689;47.364;8.796;2024-03-23T05:11:32;10.50;92.10
17148;DHT22;8689;47.364;8.796;2024-03-23T05:13:58;10.50;92.00
17148;DHT22;8689;47.364;8.796;2024-03-23T05:16:27;10.60;91.60
17148;DHT22;8689;47.364;8.796;2024-03-23T05:18:53;10.60;91.70
17148;DHT22;8689;47.364;8.796;2024-03-23T05:21:20;10.60;91.40
17148;DHT22;8689;47.364;8.796;2024-03-23T05:23:47;10.70;91.10
17148;DHT22;8689;47.364;8.796;2024-03-23T05:26:14;10.70;91.10
17148;DHT22;8689;47.364;8.796;2024-03-23T05:28:40;10.80;90.50
17148;DHT22;8689;47.364;8.796;2024-03-23T05:31:07;10.90;90.30
17148;DHT22;8689;47.364;8.796;2024-03-23T05:33:37;10.90;90.30
17148;DHT22;8689;47.364;8.796;2024-03-23T05:36:05;10.90;90.00
17148;DHT22;8689;47.364;8.796;2024-03-23T05:38:31;11.00;90.00
17148;DHT22;8689;47.364;8.796;2024-03-23T05:41:00;11.00;90.20
17148;DHT22;8689;47.364;8.796;2024-03-23T05:43:27;10.90;91.20
17148;DHT22;8689;47.364;8.796;2024-03-23T05:46:00;10.90;92.50
17148;DHT22;8689;47.364;8.796;2024-03-23T05:48:27;10.80;93.80
17148;DHT22;8689;47.364;8.796;2024-03-23T05:50:58;10.60;94.90
17148;DHT22;8689;47.364;8.796;2024-03-23T05:53:28;10.40;96.20
17148;DHT22;8689;47.364;8.796;2024-03-23T05:56:01;10.40;98.90
17148;DHT22;8689;47.364;8.796;2024-03-23T05:58:29;10.30;99.90
17148;DHT22;8689;47.364;8.796;2024-03-23T06:00:58;10.00;99.90
17148;DHT22;8689;47.364;8.796;2024-03-23T06:03:27;9.80;99.90
17148;DHT22;8689;47.364;8.796;2024-03-23T06:06:38;9.50;99.90
17148;DHT22;8689;47.364;8.796;2024-03-23T06:09:11;9.30;99.90
17148;DHT22;8689;47.364;8.796;2024-03-23T06:11:38;9.30;99.90
17148;DHT22;8689;47.364;8.796;2024-03-23T06:14:08;9.20;99.90
17148;DHT22;8689;47.364;8.796;2024-03-23T06:16:35;9.10;99.90
17148;DHT22;8689;47.364;8.796;2024-03-23T06:19:01;9.00;99.90
17148;DHT22;8689;47.364;8.796;2024-03-23T06:21:32;8.90;99.90
17148;DHT22;8689;47.364;8.796;2024-03-23T06:23:58;8.80;99.90
17148;DHT22;8689;47.364;8.796;2024-03-23T06:26:25;8.80;99.90
17148;DHT22;8689;47.364;8.796;2024-03-23T06:28:51;8.70;99.90
17148;DHT22;8689;47.364;8.796;2024-03-23T06:31:18;8.70;99.90
17148;DHT22;8689;47.364;8.796;2024-03-23T06:33:44;8.60;99.90
17148;DHT22;8689;47.364;8.796;2024-03-23T06:36:12;8.60;99.90
17148;DHT22;8689;47.364;8.796;2024-03-23T06:38:40;8.60;99.90
17148;DHT22;8689;47.364;8.796;2024-03-23T06:41:07;8.60;99.90
17148;DHT22;8689;47.364;8.796;2024-03-23T06:43:34;8.70;99.90
17148;DHT22;8689;47.364;8.796;2024-03-23T06:46:03;8.70;99.90
17148;DHT22;8689;47.364;8.796;2024-03-23T06:48:30;8.70;99.90
17148;DHT22;8689;47.364;8.796;2024-03-23T06:50:57;8.60;99.90
17148;DHT22;8689;47.364;8.796;2024-03-23T06:53:24;8.50;99.90
17148;DHT22;8689;47.364;8.796;2024-03-23T06:55:53;8.50;99.90
17148;DHT22;8689;47.364;8.796;2024-03-23T06:58:21;8.40;99.90
17148;DHT22;8689;47.364;8.796;2024-03-23T07:00:48;8.40;99.90
17148;DHT22;8689;47.364;8.796;2024-03-23T07:03:16;8.40;99.90
17148;DHT22;8689;47.364;8.796;2024-03-23T07:05:42;8.40;99.90
17148;DHT22;8689;47.364;8.796;2024-03-23T07:08:09;8.40;99.90
17148;DHT22;8689;47.364;8.796;2024-03-23T07:10:39;8.30;99.90
17148;DHT22;8689;47.364;8.796;2024-03-23T07:13:07;8.30;99.90
17148;DHT22;8689;47.364;8.796;2024-03-23T07:15:33;8.30;99.90
17148;DHT22;8689;47.364;8.796;2024-03-23T07:18:00;8.20;99.90
17148;DHT22;8689;47.364;8.796;2024-03-23T07:20:27;8.20;99.90
17148;DHT22;8689;47.364;8.796;2024-03-23T07:22:56;8.20;99.90
17148;DHT22;8689;47.364;8.796;2024-03-23T07:25:22;8.20;99.90
17148;DHT22;8689;47.364;8.796;2024-03-23T07:27:52;8.20;99.90
17148;DHT22;8689;47.364;8.796;2024-03-23T07:30:20;8.20;99.90
17148;DHT22;8689;47.364;8.796;2024-03-23T07:32:48;8.20;99.90
17148;DHT22;8689;47.364;8.796;2024-03-23T07:35:14;8.30;99.90
17148;DHT22;8689;47.364;8.796;2024-03-23T07:37:42;8.30;99.90
17148;DHT22;8689;47.364;8.796;2024-03-23T07:40:09;8.30;99.90
17148;DHT22;8689;47.364;8.796;2024-03-23T07:42:37;8.30;99.90
17148;DHT22;8689;47.364;8.796;2024-03-23T07:45:07;8.20;99.90
17148;DHT22;8689;47.364;8.796;2024-03-23T07:47:37;8.20;99.90
17148;DHT22;8689;47.364;8.796;2024-03-23T07:50:04;8.20;99.90
17148;DHT22;8689;47.364;8.796;2024-03-23T07:52:46;8.20;99.90
17148;DHT22;8689;47.364;8.796;2024-03-23T07:55:14;8.20;99.90
17148;DHT22;8689;47.364;8.796;2024-03-23T07:57:40;8.20;99.90
17148;DHT22;8689;47.364;8.796;2024-03-23T08:03:15;8.20;99.90
17148;DHT22;8689;47.364;8.796;2024-03-23T08:05:43;8.20;99.90
17148;DHT22;8689;47.364;8.796;2024-03-23T08:08:09;8.20;99.90
17148;DHT22;8689;47.364;8.796;2024-03-23T08:10:36;8.20;99.90
17148;DHT22;8689;47.364;8.796;2024-03-23T08:13:03;8.20;99.90
17148;DHT22;8689;47.364;8.796;2024-03-23T08:15:31;8.20;99.90
17148;DHT22;8689;47.364;8.796;2024-03-23T08:18:05;8.20;99.90
17148;DHT22;8689;47.364;8.796;2024-03-23T08:20:40;8.00;99.90
17148;DHT22;8689;47.364;8.796;2024-03-23T08:23:07;7.90;99.90
17148;DHT22;8689;47.364;8.796;2024-03-23T08:25:35;7.70;99.90
17148;DHT22;8689;47.364;8.796;2024-03-23T08:28:01;7.60;99.90
17148;DHT22;8689;47.364;8.796;2024-03-23T08:30:30;7.40;99.90
17148;DHT22;8689;47.364;8.796;2024-03-23T08:32:59;7.30;99.90
17148;DHT22;8689;47.364;8.796;2024-03-23T08:35:28;7.20;99.90
17148;DHT22;8689;47.364;8.796;2024-03-23T08:37:57;7.10;99.90
17148;DHT22;8689;47.364;8.796;2024-03-23T08:40:24;7.10;99.90
17148;DHT22;8689;47.364;8.796;2024-03-23T08:42:50;7.00;99.90
17148;DHT22;8689;47.364;8.796;2024-03-23T08:45:17;7.00;99.90
17148;DHT22;8689;47.364;8.796;2024-03-23T08:47:43;6.90;99.90
17148;DHT22;8689;47.364;8.796;2024-03-23T08:50:10;6.80;99.90
17148;DHT22;8689;47.364;8.796;2024-03-23T08:52:41;6.70;99.90
17148;DHT22;8689;47.364;8.796;2024-03-23T08:55:12;6.60;99.90
17148;DHT22;8689;47.364;8.796;2024-03-23T08:57:39;6.60;99.90
17148;DHT22;8689;47.364;8.796;2024-03-23T09:00:10;6.60;99.90
17148;DHT22;8689;47.364;8.796;2024-03-23T09:02:37;6.50;99.90
17148;DHT22;8689;47.364;8.796;2024-03-23T09:05:06;6.40;99.90
17148;DHT22;8689;47.364;8.796;2024-03-23T09:07:32;6.40;99.90
17148;DHT22;8689;47.364;8.796;2024-03-23T09:09:59;6.40;99.90
17148;DHT22;8689;47.364;8.796;2024-03-23T09:12:27;6.40;99.90
17148;DHT22;8689;47.364;8.796;2024-03-23T09:14:54;6.40;99.90
17148;DHT22;8689;47.364;8.796;2024-03-23T09:17:20;6.40;99.90
17148;DHT22;8689;47.364;8.796;2024-03-23T09:19:47;6.40;99.90
17148;DHT22;8689;47.364;8.796;2024-03-23T09:22:13;6.40;99.90
17148;DHT22;8689;47.364;8.796;2024-03-23T09:24:40;6.40;99.90
17148;DHT22;8689;47.364;8.796;2024-03-23T09:27:06;6.50;99.90
17148;DHT22;8689;47.364;8.796;2024-03-23T09:29:35;6.40;99.90
17148;DHT22;8689;47.364;8.796;2024-03-23T09:32:01;6.40;99.90
17148;DHT22;8689;47.364;8.796;2024-03-23T09:34:28;6.40;99.90
17148;DHT22;8689;47.364;8.796;2024-03-23T09:36:54;6.40;99.90
17148;DHT22;8689;47.364;8.796;2024-03-23T09:39:21;6.50;99.90
17148;DHT22;8689;47.364;8.796;2024-03-23T09:41:47;6.50;99.90
17148;DHT22;8689;47.364;8.796;2024-03-23T09:44:14;6.50;99.90
17148;DHT22;8689;47.364;8.796;2024-03-23T09:46:42;6.50;99.90
17148;DHT22;8689;47.364;8.796;2024-03-23T09:49:09;6.50;99.90
17148;DHT22;8689;47.364;8.796;2024-03-23T09:51:36;6.50;99.90
17148;DHT22;8689;47.364;8.796;2024-03-23T09:54:04;6.50;99.90
17148;DHT22;8689;47.364;8.796;2024-03-23T09:56:29;6.50;99.90
17148;DHT22;8689;47.364;8.796;2024-03-23T09:59:03;6.50;99.90
17148;DHT22;8689;47.364;8.796;2024-03-23T10:01:30;6.50;99.90
17148;DHT22;8689;47.364;8.796;2024-03-23T10:03:59;6.60;99.90
17148;DHT22;8689;47.364;8.796;2024-03-23T10:06:25;6.50;99.90
17148;DHT22;8689;47.364;8.796;2024-03-23T10:08:52;6.60;99.90
17148;DHT22;8689;47.364;8.796;2024-03-23T10:11:20;6.60;99.90
17148;DHT22;8689;47.364;8.796;2024-03-23T10:13:48;6.60;99.90
17148;DHT22;8689;47.364;8.796;2024-03-23T10:16:21;6.50;99.90
17148;DHT22;8689;47.364;8.796;2024-03-23T10:18:49;6.60;99.90
17148;DHT22;8689;47.364;8.796;2024-03-23T10:21:18;6.60;99.90
17148;DHT22;8689;47.364;8.796;2024-03-23T10:23:45;6.60;99.90
17148;DHT22;8689;47.364;8.796;2024-03-23T10:26:17;6.60;99.90
17148;DHT22;8689;47.364;8.796;2024-03-23T10:28:55;6.60;99.90
17148;DHT22;8689;47.364;8.796;2024-03-23T10:31:24;6.60;99.90
17148;DHT22;8689;47.364;8.796;2024-03-23T10:33:51;6.70;99.90
17148;DHT22;8689;47.364;8.796;2024-03-23T10:36:22;6.70;99.90
17148;DHT22;8689;47.364;8.796;2024-03-23T10:38:50;6.70;99.90
17148;DHT22;8689;47.364;8.796;2024-03-23T10:41:17;6.80;99.90
17148;DHT22;8689;47.364;8.796;2024-03-23T10:43:46;6.90;99.90
17148;DHT22;8689;47.364;8.796;2024-03-23T10:46:12;6.90;99.90
17148;DHT22;8689;47.364;8.796;2024-03-23T10:48:40;6.90;99.90
17148;DHT22;8689;47.364;8.796;2024-03-23T10:51:08;6.90;99.90
17148;DHT22;8689;47.364;8.796;2024-03-23T10:53:37;7.00;99.90
17148;DHT22;8689;47.364;8.796;2024-03-23T10:56:05;7.10;99.90
17148;DHT22;8689;47.364;8.796;2024-03-23T10:58:35;7.30;99.90
17148;DHT22;8689;47.364;8.796;2024-03-23T11:01:03;7.60;99.90
17148;DHT22;8689;47.364;8.796;2024-03-23T11:03:32;7.90;99.90
17148;DHT22;8689;47.364;8.796;2024-03-23T11:05:59;8.10;99.90
17148;DHT22;8689;47.364;8.796;2024-03-23T11:08:38;8.20;98.90
17148;DHT22;8689;47.364;8.796;2024-03-23T11:11:15;8.30;99.60
17148;DHT22;8689;47.364;8.796;2024-03-23T11:13:43;8.20;96.90
17148;DHT22;8689;47.364;8.796;2024-03-23T11:16:16;8.20;95.40
17148;DHT22;8689;47.364;8.796;2024-03-23T11:18:44;8.00;94.70
17148;DHT22;8689;47.364;8.796;2024-03-23T11:21:10;8.00;95.30
17148;DHT22;8689;47.364;8.796;2024-03-23T11:23:39;8.00;95.20
17148;DHT22;8689;47.364;8.796;2024-03-23T11:26:08;8.00;97.00
17148;DHT22;8689;47.364;8.796;2024-03-23T11:28:35;8.20;95.50
17148;DHT22;8689;47.364;8.796;2024-03-23T11:31:01;8.30;95.40
17148;DHT22;8689;47.364;8.796;2024-03-23T11:33:28;8.20;94.70
17148;DHT22;8689;47.364;8.796;2024-03-23T11:35:54;8.10;93.40
17148;DHT22;8689;47.364;8.796;2024-03-23T11:38:21;7.90;94.60
17148;DHT22;8689;47.364;8.796;2024-03-23T11:40:49;7.80;95.50
17148;DHT22;8689;47.364;8.796;2024-03-23T11:43:17;7.70;94.90
17148;DHT22;8689;47.364;8.796;2024-03-23T11:45:45;7.80;93.90
17148;DHT22;8689;47.364;8.796;2024-03-23T11:48:14;7.90;93.40
17148;DHT22;8689;47.364;8.796;2024-03-23T11:50:41;7.90;93.80
17148;DHT22;8689;47.364;8.796;2024-03-23T11:53:11;8.00;92.70
17148;DHT22;8689;47.364;8.796;2024-03-23T11:55:46;8.10;91.30
17148;DHT22;8689;47.364;8.796;2024-03-23T11:58:18;8.20;92.10
17148;DHT22;8689;47.364;8.796;2024-03-23T12:00:50;8.30;91.00
17148;DHT22;8689;47.364;8.796;2024-03-23T12:03:19;8.30;90.50
17148;DHT22;8689;47.364;8.796;2024-03-23T12:06:00;8.40;90.60
17148;DHT22;8689;47.364;8.796;2024-03-23T12:08:32;8.50;87.20
17148;DHT22;8689;47.364;8.796;2024-03-23T12:11:06;8.60;87.00
17148;DHT22;8689;47.364;8.796;2024-03-23T12:13:39;8.70;85.50
17148;DHT22;8689;47.364;8.796;2024-03-23T12:16:13;8.90;84.60
17148;DHT22;8689;47.364;8.796;2024-03-23T12:18:51;9.20;81.90
17148;DHT22;8689;47.364;8.796;2024-03-23T12:21:18;10.20;78.00
17148;DHT22;8689;47.364;8.796;2024-03-23T12:23:48;11.30;71.10
17148;DHT22;8689;47.364;8.796;2024-03-23T12:26:15;12.30;72.40
17148;DHT22;8689;47.364;8.796;2024-03-23T12:28:45;13.10;66.70
17148;DHT22;8689;47.364;8.796;2024-03-23T12:31:12;13.60;63.20
17148;DHT22;8689;47.364;8.796;2024-03-23T12:33:40;13.70;58.70
17148;DHT22;8689;47.364;8.796;2024-03-23T12:36:11;13.80;56.80
17148;DHT22;8689;47.364;8.796;2024-03-23T12:38:39;13.80;56.50
17148;DHT22;8689;47.364;8.796;2024-03-23T12:41:05;13.80;57.10
17148;DHT22;8689;47.364;8.796;2024-03-23T12:43:32;14.00;57.60
17148;DHT22;8689;47.364;8.796;2024-03-23T12:45:59;14.30;60.60
17148;DHT22;8689;47.364;8.796;2024-03-23T12:48:26;13.20;68.40
17148;DHT22;8689;47.364;8.796;2024-03-23T12:50:55;12.40;71.90
17148;DHT22;8689;47.364;8.796;2024-03-23T12:53:22;11.70;73.80
17148;DHT22;8689;47.364;8.796;2024-03-23T12:55:48;11.10;75.90
17148;DHT22;8689;47.364;8.796;2024-03-23T12:58:51;10.70;78.10
17148;DHT22;8689;47.364;8.796;2024-03-23T13:04:25;10.80;76.50
17148;DHT22;8689;47.364;8.796;2024-03-23T13:06:53;10.40;76.60
17148;DHT22;8689;47.364;8.796;2024-03-23T13:09:22;10.00;79.20
17148;DHT22;8689;47.364;8.796;2024-03-23T13:11:51;10.20;80.70
17148;DHT22;8689;47.364;8.796;2024-03-23T13:14:22;11.20;78.20
17148;DHT22;8689;47.364;8.796;2024-03-23T13:16:49;12.00;71.90
17148;DHT22;8689;47.364;8.796;2024-03-23T13:19:15;12.60;69.20
17148;DHT22;8689;47.364;8.796;2024-03-23T13:21:44;13.30;68.40
17148;DHT22;8689;47.364;8.796;2024-03-23T13:24:10;13.70;63.10
17148;DHT22;8689;47.364;8.796;2024-03-23T13:26:37;13.60;63.00
17148;DHT22;8689;47.364;8.796;2024-03-23T13:29:03;13.50;62.60
17148;DHT22;8689;47.364;8.796;2024-03-23T13:31:31;13.20;63.80
17148;DHT22;8689;47.364;8.796;2024-03-23T13:33:57;13.30;63.40
17148;DHT22;8689;47.364;8.796;2024-03-23T13:36:25;13.80;62.90
17148;DHT22;8689;47.364;8.796;2024-03-23T13:38:53;14.30;59.20
17148;DHT22;8689;47.364;8.796;2024-03-23T13:41:20;14.70;58.50
17148;DHT22;8689;47.364;8.796;2024-03-23T13:43:46;14.80;57.40
17148;DHT22;8689;47.364;8.796;2024-03-23T13:46:13;14.70;56.60
17148;DHT22;8689;47.364;8.796;2024-03-23T13:48:39;14.70;56.70
17148;DHT22;8689;47.364;8.796;2024-03-23T13:51:08;14.60;56.70
17148;DHT22;8689;47.364;8.796;2024-03-23T13:53:34;14.80;55.60
17148;DHT22;8689;47.364;8.796;2024-03-23T13:56:03;14.90;55.50
17148;DHT22;8689;47.364;8.796;2024-03-23T13:58:31;14.80;55.40
17148;DHT22;8689;47.364;8.796;2024-03-23T14:00:58;14.80;55.10
17148;DHT22;8689;47.364;8.796;2024-03-23T14:03:24;15.10;54.40
17148;DHT22;8689;47.364;8.796;2024-03-23T14:05:58;15.00;55.50
17148;DHT22;8689;47.364;8.796;2024-03-23T14:08:23;15.20;54.50
17148;DHT22;8689;47.364;8.796;2024-03-23T14:10:51;15.50;51.70
17148;DHT22;8689;47.364;8.796;2024-03-23T14:13:19;15.20;46.10
17148;DHT22;8689;47.364;8.796;2024-03-23T14:15:46;14.50;46.30
17148;DHT22;8689;47.364;8.796;2024-03-23T14:18:12;13.70;49.40
17148;DHT22;8689;47.364;8.796;2024-03-23T14:20:40;13.10;58.20
17148;DHT22;8689;47.364;8.796;2024-03-23T14:23:07;12.70;59.80
17148;DHT22;8689;47.364;8.796;2024-03-23T14:25:34;12.50;63.90
17148;DHT22;8689;47.364;8.796;2024-03-23T14:28:00;12.50;63.80
17148;DHT22;8689;47.364;8.796;2024-03-23T14:30:29;12.50;63.70
17148;DHT22;8689;47.364;8.796;2024-03-23T14:32:57;12.30;64.40
17148;DHT22;8689;47.364;8.796;2024-03-23T14:35:25;12.20;61.60
17148;DHT22;8689;47.364;8.796;2024-03-23T14:37:55;12.30;60.30
17148;DHT22;8689;47.364;8.796;2024-03-23T14:40:24;12.40;63.30
17148;DHT22;8689;47.364;8.796;2024-03-23T14:42:52;12.40;61.20
17148;DHT22;8689;47.364;8.796;2024-03-23T14:45:19;12.50;63.30
17148;DHT22;8689;47.364;8.796;2024-03-23T14:47:47;12.50;60.80
17148;DHT22;8689;47.364;8.796;2024-03-23T14:50:15;12.30;59.40
17148;DHT22;8689;47.364;8.796;2024-03-23T14:52:42;12.00;61.80
17148;DHT22;8689;47.364;8.796;2024-03-23T14:55:10;11.50;63.50
17148;DHT22;8689;47.364;8.796;2024-03-23T14:57:36;11.20;63.30
17148;DHT22;8689;47.364;8.796;2024-03-23T15:00:06;11.00;64.80
17148;DHT22;8689;47.364;8.796;2024-03-23T15:02:33;10.80;64.50
17148;DHT22;8689;47.364;8.796;2024-03-23T15:05:02;10.70;66.50
17148;DHT22;8689;47.364;8.796;2024-03-23T15:07:29;10.60;65.00
17148;DHT22;8689;47.364;8.796;2024-03-23T15:09:56;10.70;66.90
17148;DHT22;8689;47.364;8.796;2024-03-23T15:12:22;10.90;64.50
17148;DHT22;8689;47.364;8.796;2024-03-23T15:14:49;11.10;64.90
17148;DHT22;8689;47.364;8.796;2024-03-23T15:17:15;11.30;62.70
17148;DHT22;8689;47.364;8.796;2024-03-23T15:19:44;11.20;63.10
17148;DHT22;8689;47.364;8.796;2024-03-23T15:22:11;11.20;62.20
17148;DHT22;8689;47.364;8.796;2024-03-23T15:24:39;11.10;60.30
17148;DHT22;8689;47.364;8.796;2024-03-23T15:27:05;10.90;58.30
17148;DHT22;8689;47.364;8.796;2024-03-23T15:29:34;10.90;59.80
17148;DHT22;8689;47.364;8.796;2024-03-23T15:32:02;11.00;59.80
17148;DHT22;8689;47.364;8.796;2024-03-23T15:34:29;11.00;57.80
17148;DHT22;8689;47.364;8.796;2024-03-23T15:36:55;10.80;56.80
17148;DHT22;8689;47.364;8.796;2024-03-23T15:39:24;10.90;57.80
17148;DHT22;8689;47.364;8.796;2024-03-23T15:41:50;10.90;57.70
17148;DHT22;8689;47.364;8.796;2024-03-23T15:44:17;10.90;55.80
17148;DHT22;8689;47.364;8.796;2024-03-23T15:46:43;10.80;55.60
17148;DHT22;8689;47.364;8.796;2024-03-23T15:49:10;10.50;57.00
17148;DHT22;8689;47.364;8.796;2024-03-23T15:51:37;10.30;56.90
17148;DHT22;8689;47.364;8.796;2024-03-23T15:54:05;10.10;56.20
17148;DHT22;8689;47.364;8.796;2024-03-23T15:56:32;10.20;57.40
17148;DHT22;8689;47.364;8.796;2024-03-23T15:58:59;10.20;57.80
17148;DHT22;8689;47.364;8.796;2024-03-23T16:01:31;10.20;56.80
17148;DHT22;8689;47.364;8.796;2024-03-23T16:03:59;10.10;57.20
17148;DHT22;8689;47.364;8.796;2024-03-23T16:06:25;10.00;58.60
17148;DHT22;8689;47.364;8.796;2024-03-23T16:08:53;9.90;57.90
17148;DHT22;8689;47.364;8.796;2024-03-23T16:11:19;9.80;58.00
17148;DHT22;8689;47.364;8.796;2024-03-23T16:13:49;9.60;57.80
17148;DHT22;8689;47.364;8.796;2024-03-23T16:16:15;9.40;58.60
17148;DHT22;8689;47.364;8.796;2024-03-23T16:18:43;9.20;60.40
17148;DHT22;8689;47.364;8.796;2024-03-23T16:21:10;9.00;62.20
17148;DHT22;8689;47.364;8.796;2024-03-23T16:23:37;9.00;59.40
17148;DHT22;8689;47.364;8.796;2024-03-23T16:26:04;8.80;59.30
17148;DHT22;8689;47.364;8.796;2024-03-23T16:28:32;8.80;61.70
17148;DHT22;8689;47.364;8.796;2024-03-23T16:34:00;8.60;61.30
17148;DHT22;8689;47.364;8.796;2024-03-23T16:36:29;8.70;62.50
17148;DHT22;8689;47.364;8.796;2024-03-23T16:38:55;8.70;61.30
17148;DHT22;8689;47.364;8.796;2024-03-23T16:41:22;8.80;61.10
17148;DHT22;8689;47.364;8.796;2024-03-23T16:43:49;8.90;60.70
17148;DHT22;8689;47.364;8.796;2024-03-23T16:46:16;9.00;60.40
17148;DHT22;8689;47.364;8.796;2024-03-23T16:48:43;8.90;60.60
17148;DHT22;8689;47.364;8.796;2024-03-23T16:51:12;8.80;60.00
17148;DHT22;8689;47.364;8.796;2024-03-23T16:53:39;8.70;60.00
17148;DHT22;8689;47.364;8.796;2024-03-23T16:56:08;8.60;59.30
17148;DHT22;8689;47.364;8.796;2024-03-23T16:58:35;8.50;59.90
17148;DHT22;8689;47.364;8.796;2024-03-23T17:01:03;8.40;61.20
17148;DHT22;8689;47.364;8.796;2024-03-23T17:03:29;8.40;62.80